Aeroporto :
LOGIN :

Iscrizione | Disclaimer

   EN    FR    IT 

 










Sommario :    VFR   VFR Marginale   IFR   IFR Intensivo   IFR Molto Intensivo
Visibilità : 
Base nubi : 
>= 8 km
>= 3000ft
5 / 8 km
1000 / 3000 ft
1500m / 5 km
500 / 1000 ft
800 / 1500m
200 / 500 ft
< 800m
< 200 ft
Simboli :   Temporali  Nebbia  Neve Forte  Precipitazioni Forti  Vento > 20 kt
SIGMETs :   Varie  Temporali  Ghiacco  Turbolenza  Onda orograficha  Ceneri Vulcaniche






- Altitudine del aeroporto : 74 ft
- Codice IATA : LRH


LFBH - La Rochelle Ile de Ré

ULTIMO METAR :
  • 142100Z AUTO 14003KT 9000 NSC 03/02 Q0997 NOSIG

METARs OBSOLETI :
  • 142030Z AUTO 11003KT CAVOK 04/03 Q0997 NOSIG
  • 142000Z AUTO 07004KT CAVOK 04/03 Q0997 NOSIG
  • 141930Z AUTO 09003KT CAVOK 04/03 Q0997 NOSIG
  • 141900Z AUTO 06003KT CAVOK 04/02 Q0997 NOSIG
  • 141830Z AUTO 36003KT CAVOK 05/03 Q0997 NOSIG

TAF TAF LFBH
Valido dal 14 a 18 ore il 15 a 18 ore UTC


141700Z 1418/1518 02005KT 9999 FEW040
TEMPO 1503/1515 04010KT
PROB30 1503/1506 0500 FG VV///
PROB40 1503/1510 3000 BR OVC004
PROB40
TEMPO 1510/1512 BKN010
ATIS : +33 5 46 00 13 92



MetMap, La meteo Aeronautica in un colpo d'occhio ! - Copyright ORBIFLY Dicembre 2007 - Disclaimer

ORBIFLY MET'MAP TEAM :

Programmazione e sviluppo : Alexandra Zaïnal
Concezione e sviluppo : Baudouin d'Aumeries
Co-Programmazione e sviluppo : Marc-Olivier Méhu
Supporto tecnico e logistico : Manuel Goepfert
Aiuto per la traduzione : Arnaldo La Scala

Contatto : metmap@orbifly.com




FONTI E CREDITI :

   NOAA